sensor_id;sensor_type;location;lat;lon;timestamp;temperature;humidity
758;DHT22;363;48.764;9.172;2022-10-28T00:00:50;16.40;99.90
758;DHT22;363;48.764;9.172;2022-10-28T00:03:17;16.30;99.90
758;DHT22;363;48.764;9.172;2022-10-28T00:05:42;16.20;99.90
758;DHT22;363;48.764;9.172;2022-10-28T00:08:08;16.10;99.90
758;DHT22;363;48.764;9.172;2022-10-28T00:10:34;16.40;99.90
758;DHT22;363;48.764;9.172;2022-10-28T00:13:00;16.30;99.90
758;DHT22;363;48.764;9.172;2022-10-28T00:15:26;16.10;99.90
758;DHT22;363;48.764;9.172;2022-10-28T00:17:52;16.30;99.90
758;DHT22;363;48.764;9.172;2022-10-28T00:20:17;16.30;99.90
758;DHT22;363;48.764;9.172;2022-10-28T00:22:43;16.10;99.90
758;DHT22;363;48.764;9.172;2022-10-28T00:25:09;16.20;99.90
758;DHT22;363;48.764;9.172;2022-10-28T00:27:35;16.20;99.90
758;DHT22;363;48.764;9.172;2022-10-28T00:30:01;16.10;99.90
758;DHT22;363;48.764;9.172;2022-10-28T00:32:30;16.00;99.90
758;DHT22;363;48.764;9.172;2022-10-28T00:34:56;16.00;99.90
758;DHT22;363;48.764;9.172;2022-10-28T00:37:22;16.00;99.90
758;DHT22;363;48.764;9.172;2022-10-28T00:39:47;16.10;99.90
758;DHT22;363;48.764;9.172;2022-10-28T00:42:18;15.90;99.90
758;DHT22;363;48.764;9.172;2022-10-28T00:44:55;16.00;99.90
758;DHT22;363;48.764;9.172;2022-10-28T00:53:05;15.90;99.90
758;DHT22;363;48.764;9.172;2022-10-28T00:55:32;16.20;99.90
758;DHT22;363;48.764;9.172;2022-10-28T00:58:00;16.00;99.90
758;DHT22;363;48.764;9.172;2022-10-28T01:00:27;16.00;99.90
758;DHT22;363;48.764;9.172;2022-10-28T01:02:52;16.10;99.90
758;DHT22;363;48.764;9.172;2022-10-28T01:05:26;16.10;99.90
758;DHT22;363;48.764;9.172;2022-10-28T01:07:54;16.10;99.90
758;DHT22;363;48.764;9.172;2022-10-28T01:10:25;16.10;99.90
758;DHT22;363;48.764;9.172;2022-10-28T01:12:57;16.10;99.90
758;DHT22;363;48.764;9.172;2022-10-28T01:15:35;15.80;99.90
758;DHT22;363;48.764;9.172;2022-10-28T01:18:23;16.20;99.90
758;DHT22;363;48.764;9.172;2022-10-28T01:21:10;16.00;99.90
758;DHT22;363;48.764;9.172;2022-10-28T01:37:59;15.80;99.90
758;DHT22;363;48.764;9.172;2022-10-28T01:40:33;15.80;99.90
758;DHT22;363;48.764;9.172;2022-10-28T01:43:14;15.70;99.90
758;DHT22;363;48.764;9.172;2022-10-28T01:48:22;15.90;99.90
758;DHT22;363;48.764;9.172;2022-10-28T01:50:56;15.60;99.90
758;DHT22;363;48.764;9.172;2022-10-28T01:53:30;15.70;99.90
758;DHT22;363;48.764;9.172;2022-10-28T01:56:02;15.70;99.90
758;DHT22;363;48.764;9.172;2022-10-28T01:58:29;15.50;99.90
758;DHT22;363;48.764;9.172;2022-10-28T02:00:58;15.70;99.90
758;DHT22;363;48.764;9.172;2022-10-28T02:03:26;15.80;99.90
758;DHT22;363;48.764;9.172;2022-10-28T02:05:56;15.70;99.90
758;DHT22;363;48.764;9.172;2022-10-28T02:16:49;15.60;99.90
758;DHT22;363;48.764;9.172;2022-10-28T02:19:36;15.50;99.90
758;DHT22;363;48.764;9.172;2022-10-28T02:22:14;15.50;99.90
758;DHT22;363;48.764;9.172;2022-10-28T02:27:35;15.60;99.90
758;DHT22;363;48.764;9.172;2022-10-28T02:30:13;15.30;99.90
758;DHT22;363;48.764;9.172;2022-10-28T02:32:43;15.10;99.90
758;DHT22;363;48.764;9.172;2022-10-28T02:35:15;15.20;99.90
758;DHT22;363;48.764;9.172;2022-10-28T02:37:44;15.30;99.90
758;DHT22;363;48.764;9.172;2022-10-28T02:40:19;15.00;99.90
758;DHT22;363;48.764;9.172;2022-10-28T02:42:51;15.10;99.90
758;DHT22;363;48.764;9.172;2022-10-28T02:45:21;15.00;99.90
758;DHT22;363;48.764;9.172;2022-10-28T02:47:51;15.20;99.90
758;DHT22;363;48.764;9.172;2022-10-28T02:50:23;15.20;99.90
758;DHT22;363;48.764;9.172;2022-10-28T02:52:50;15.10;99.90
758;DHT22;363;48.764;9.172;2022-10-28T02:55:19;15.30;99.90
758;DHT22;363;48.764;9.172;2022-10-28T02:57:47;15.30;99.90
758;DHT22;363;48.764;9.172;2022-10-28T03:00:19;15.20;99.90
758;DHT22;363;48.764;9.172;2022-10-28T03:02:45;15.40;99.90
758;DHT22;363;48.764;9.172;2022-10-28T03:05:11;15.10;99.90
758;DHT22;363;48.764;9.172;2022-10-28T03:07:37;15.20;99.90
758;DHT22;363;48.764;9.172;2022-10-28T03:10:03;15.20;99.90
758;DHT22;363;48.764;9.172;2022-10-28T03:12:28;15.10;99.90
758;DHT22;363;48.764;9.172;2022-10-28T03:14:54;15.10;99.90
758;DHT22;363;48.764;9.172;2022-10-28T03:17:19;15.30;99.90
758;DHT22;363;48.764;9.172;2022-10-28T03:19:45;15.10;99.90
758;DHT22;363;48.764;9.172;2022-10-28T03:22:11;15.00;99.90
758;DHT22;363;48.764;9.172;2022-10-28T03:24:36;14.90;99.90
758;DHT22;363;48.764;9.172;2022-10-28T03:27:02;15.20;99.90
758;DHT22;363;48.764;9.172;2022-10-28T03:29:27;14.50;99.90
758;DHT22;363;48.764;9.172;2022-10-28T03:31:53;15.50;99.90
758;DHT22;363;48.764;9.172;2022-10-28T03:34:18;15.20;99.90
758;DHT22;363;48.764;9.172;2022-10-28T03:36:44;15.20;99.90
758;DHT22;363;48.764;9.172;2022-10-28T03:39:10;15.30;99.90
758;DHT22;363;48.764;9.172;2022-10-28T03:41:35;15.30;99.90
758;DHT22;363;48.764;9.172;2022-10-28T03:44:01;15.60;99.90
758;DHT22;363;48.764;9.172;2022-10-28T03:46:26;15.40;99.90
758;DHT22;363;48.764;9.172;2022-10-28T03:48:52;15.40;99.90
758;DHT22;363;48.764;9.172;2022-10-28T03:51:18;15.50;99.90
758;DHT22;363;48.764;9.172;2022-10-28T03:53:43;15.40;99.90
758;DHT22;363;48.764;9.172;2022-10-28T03:56:10;15.40;99.90
758;DHT22;363;48.764;9.172;2022-10-28T03:58:36;15.70;99.90
758;DHT22;363;48.764;9.172;2022-10-28T04:01:02;15.70;99.90
758;DHT22;363;48.764;9.172;2022-10-28T04:03:27;15.50;99.90
758;DHT22;363;48.764;9.172;2022-10-28T04:05:53;15.60;99.90
758;DHT22;363;48.764;9.172;2022-10-28T04:08:19;15.40;99.90
758;DHT22;363;48.764;9.172;2022-10-28T04:10:45;15.40;99.90
758;DHT22;363;48.764;9.172;2022-10-28T04:13:11;15.40;99.90
758;DHT22;363;48.764;9.172;2022-10-28T04:15:37;15.40;99.90
758;DHT22;363;48.764;9.172;2022-10-28T04:18:03;15.40;99.90
758;DHT22;363;48.764;9.172;2022-10-28T04:20:29;15.40;99.90
758;DHT22;363;48.764;9.172;2022-10-28T04:22:55;15.40;99.90
758;DHT22;363;48.764;9.172;2022-10-28T04:25:21;15.60;99.90
758;DHT22;363;48.764;9.172;2022-10-28T04:27:47;15.50;99.90
758;DHT22;363;48.764;9.172;2022-10-28T04:30:13;15.40;99.90
758;DHT22;363;48.764;9.172;2022-10-28T04:32:40;15.50;99.90
758;DHT22;363;48.764;9.172;2022-10-28T04:35:06;15.40;99.90
758;DHT22;363;48.764;9.172;2022-10-28T04:37:32;15.60;99.90
758;DHT22;363;48.764;9.172;2022-10-28T04:39:57;15.30;99.90
758;DHT22;363;48.764;9.172;2022-10-28T04:42:23;15.80;99.90
758;DHT22;363;48.764;9.172;2022-10-28T04:44:48;15.70;99.90
758;DHT22;363;48.764;9.172;2022-10-28T04:47:15;15.90;99.90
758;DHT22;363;48.764;9.172;2022-10-28T04:49:40;15.70;99.90
758;DHT22;363;48.764;9.172;2022-10-28T04:52:06;15.50;99.90
758;DHT22;363;48.764;9.172;2022-10-28T04:54:31;15.70;99.90
758;DHT22;363;48.764;9.172;2022-10-28T04:56:57;15.70;99.90
758;DHT22;363;48.764;9.172;2022-10-28T04:59:22;15.80;99.90
758;DHT22;363;48.764;9.172;2022-10-28T05:01:48;15.70;99.90
758;DHT22;363;48.764;9.172;2022-10-28T05:04:13;15.60;99.90
758;DHT22;363;48.764;9.172;2022-10-28T05:06:39;15.80;99.90
758;DHT22;363;48.764;9.172;2022-10-28T05:09:04;15.80;99.90
758;DHT22;363;48.764;9.172;2022-10-28T05:11:30;15.90;99.90
758;DHT22;363;48.764;9.172;2022-10-28T05:13:56;16.10;99.90
758;DHT22;363;48.764;9.172;2022-10-28T05:16:21;16.10;99.90
758;DHT22;363;48.764;9.172;2022-10-28T05:18:47;15.90;99.90
758;DHT22;363;48.764;9.172;2022-10-28T05:21:13;15.70;99.90
758;DHT22;363;48.764;9.172;2022-10-28T05:23:38;15.70;99.90
758;DHT22;363;48.764;9.172;2022-10-28T05:26:04;15.90;99.90
758;DHT22;363;48.764;9.172;2022-10-28T05:28:30;16.30;99.90
758;DHT22;363;48.764;9.172;2022-10-28T05:30:55;16.00;99.90
758;DHT22;363;48.764;9.172;2022-10-28T05:33:21;15.90;99.90
758;DHT22;363;48.764;9.172;2022-10-28T05:35:47;15.80;99.90
758;DHT22;363;48.764;9.172;2022-10-28T05:38:12;15.70;99.90
758;DHT22;363;48.764;9.172;2022-10-28T05:40:38;15.80;99.90
758;DHT22;363;48.764;9.172;2022-10-28T05:43:04;15.80;99.90
758;DHT22;363;48.764;9.172;2022-10-28T05:45:29;15.90;99.90
758;DHT22;363;48.764;9.172;2022-10-28T05:47:56;15.80;99.90
758;DHT22;363;48.764;9.172;2022-10-28T05:50:22;15.60;99.90
758;DHT22;363;48.764;9.172;2022-10-28T05:52:53;15.60;99.90
758;DHT22;363;48.764;9.172;2022-10-28T05:55:20;15.60;99.90
758;DHT22;363;48.764;9.172;2022-10-28T05:57:47;15.30;99.90
758;DHT22;363;48.764;9.172;2022-10-28T06:00:14;15.50;99.90
758;DHT22;363;48.764;9.172;2022-10-28T06:02:40;15.70;99.90
758;DHT22;363;48.764;9.172;2022-10-28T06:05:07;15.70;99.90
758;DHT22;363;48.764;9.172;2022-10-28T06:07:32;15.70;99.90
758;DHT22;363;48.764;9.172;2022-10-28T06:09:59;15.70;99.90
758;DHT22;363;48.764;9.172;2022-10-28T06:12:25;15.80;99.90
758;DHT22;363;48.764;9.172;2022-10-28T06:14:51;15.80;99.90
758;DHT22;363;48.764;9.172;2022-10-28T06:17:16;15.90;99.90
758;DHT22;363;48.764;9.172;2022-10-28T06:19:42;15.80;99.90
758;DHT22;363;48.764;9.172;2022-10-28T06:22:08;15.90;99.90
758;DHT22;363;48.764;9.172;2022-10-28T06:24:33;16.10;99.90
758;DHT22;363;48.764;9.172;2022-10-28T06:26:59;15.90;99.90
758;DHT22;363;48.764;9.172;2022-10-28T06:29:24;16.10;99.90
758;DHT22;363;48.764;9.172;2022-10-28T06:31:50;16.10;99.90
758;DHT22;363;48.764;9.172;2022-10-28T06:34:16;15.80;99.90
758;DHT22;363;48.764;9.172;2022-10-28T06:36:41;16.20;99.90
758;DHT22;363;48.764;9.172;2022-10-28T06:39:07;16.20;99.90
758;DHT22;363;48.764;9.172;2022-10-28T06:41:33;16.30;99.90
758;DHT22;363;48.764;9.172;2022-10-28T06:43:59;16.10;99.90
758;DHT22;363;48.764;9.172;2022-10-28T06:46:25;16.20;99.90
758;DHT22;363;48.764;9.172;2022-10-28T06:48:53;16.40;99.90
758;DHT22;363;48.764;9.172;2022-10-28T06:51:18;16.70;99.90
758;DHT22;363;48.764;9.172;2022-10-28T06:53:48;16.50;99.90
758;DHT22;363;48.764;9.172;2022-10-28T06:56:14;16.50;99.90
758;DHT22;363;48.764;9.172;2022-10-28T06:58:40;16.70;99.90
758;DHT22;363;48.764;9.172;2022-10-28T07:01:06;16.60;99.90
758;DHT22;363;48.764;9.172;2022-10-28T07:03:31;16.80;99.90
758;DHT22;363;48.764;9.172;2022-10-28T07:05:57;16.50;99.90
758;DHT22;363;48.764;9.172;2022-10-28T07:08:23;16.70;99.90
758;DHT22;363;48.764;9.172;2022-10-28T07:10:56;16.80;99.90
758;DHT22;363;48.764;9.172;2022-10-28T07:13:23;16.90;99.90
758;DHT22;363;48.764;9.172;2022-10-28T07:15:53;16.90;99.90
758;DHT22;363;48.764;9.172;2022-10-28T07:18:19;17.00;99.90
758;DHT22;363;48.764;9.172;2022-10-28T07:20:45;17.20;99.90
758;DHT22;363;48.764;9.172;2022-10-28T07:23:11;17.00;99.90
758;DHT22;363;48.764;9.172;2022-10-28T07:25:36;16.90;99.90
758;DHT22;363;48.764;9.172;2022-10-28T07:28:02;17.20;99.90
758;DHT22;363;48.764;9.172;2022-10-28T07:30:28;17.50;99.90
758;DHT22;363;48.764;9.172;2022-10-28T07:32:54;17.40;99.90
758;DHT22;363;48.764;9.172;2022-10-28T07:35:20;17.80;99.90
758;DHT22;363;48.764;9.172;2022-10-28T07:37:46;17.40;99.90
758;DHT22;363;48.764;9.172;2022-10-28T07:40:11;17.90;99.90
758;DHT22;363;48.764;9.172;2022-10-28T07:42:37;17.80;99.90
758;DHT22;363;48.764;9.172;2022-10-28T07:45:03;18.10;99.90
758;DHT22;363;48.764;9.172;2022-10-28T07:47:29;17.90;99.90
758;DHT22;363;48.764;9.172;2022-10-28T07:49:55;18.10;99.90
758;DHT22;363;48.764;9.172;2022-10-28T07:52:21;18.20;99.90
758;DHT22;363;48.764;9.172;2022-10-28T07:54:46;18.30;99.90
758;DHT22;363;48.764;9.172;2022-10-28T07:57:12;18.10;99.90
758;DHT22;363;48.764;9.172;2022-10-28T07:59:37;18.00;99.90
758;DHT22;363;48.764;9.172;2022-10-28T08:02:03;18.20;99.90
758;DHT22;363;48.764;9.172;2022-10-28T08:04:30;18.20;99.90
758;DHT22;363;48.764;9.172;2022-10-28T08:06:56;18.30;99.90
758;DHT22;363;48.764;9.172;2022-10-28T08:09:21;18.40;99.90
758;DHT22;363;48.764;9.172;2022-10-28T08:11:47;18.50;99.90
758;DHT22;363;48.764;9.172;2022-10-28T08:14:13;18.50;99.90
758;DHT22;363;48.764;9.172;2022-10-28T08:16:38;18.60;99.90
758;DHT22;363;48.764;9.172;2022-10-28T08:19:04;18.70;99.90
758;DHT22;363;48.764;9.172;2022-10-28T08:21:29;18.70;99.90
758;DHT22;363;48.764;9.172;2022-10-28T08:23:55;18.80;99.90
758;DHT22;363;48.764;9.172;2022-10-28T08:26:21;18.80;99.90
758;DHT22;363;48.764;9.172;2022-10-28T08:28:47;18.90;99.90
758;DHT22;363;48.764;9.172;2022-10-28T08:31:13;18.80;99.90
758;DHT22;363;48.764;9.172;2022-10-28T08:33:41;18.90;99.90
758;DHT22;363;48.764;9.172;2022-10-28T08:36:14;18.90;99.90
758;DHT22;363;48.764;9.172;2022-10-28T08:38:42;19.00;99.90
758;DHT22;363;48.764;9.172;2022-10-28T08:41:34;19.00;99.90
758;DHT22;363;48.764;9.172;2022-10-28T08:47:03;19.10;99.90
758;DHT22;363;48.764;9.172;2022-10-28T08:49:36;19.20;99.90
758;DHT22;363;48.764;9.172;2022-10-28T08:52:34;19.20;99.90
758;DHT22;363;48.764;9.172;2022-10-28T08:55:32;19.40;99.90
758;DHT22;363;48.764;9.172;2022-10-28T08:58:07;19.40;99.90
758;DHT22;363;48.764;9.172;2022-10-28T09:00:35;19.50;99.90
758;DHT22;363;48.764;9.172;2022-10-28T09:03:15;19.60;99.90
758;DHT22;363;48.764;9.172;2022-10-28T09:05:43;19.40;99.90
758;DHT22;363;48.764;9.172;2022-10-28T09:16:38;20.10;99.90
758;DHT22;363;48.764;9.172;2022-10-28T09:19:13;20.10;99.90
758;DHT22;363;48.764;9.172;2022-10-28T09:21:46;20.00;99.90
758;DHT22;363;48.764;9.172;2022-10-28T09:24:20;20.00;99.90
758;DHT22;363;48.764;9.172;2022-10-28T09:27:01;19.80;99.90
758;DHT22;363;48.764;9.172;2022-10-28T09:32:55;19.60;99.90
758;DHT22;363;48.764;9.172;2022-10-28T09:35:25;19.70;99.90
758;DHT22;363;48.764;9.172;2022-10-28T09:40:35;19.60;99.90
758;DHT22;363;48.764;9.172;2022-10-28T09:45:42;19.50;99.90
758;DHT22;363;48.764;9.172;2022-10-28T09:50:49;19.80;99.90
758;DHT22;363;48.764;9.172;2022-10-28T09:53:39;19.90;99.90
758;DHT22;363;48.764;9.172;2022-10-28T09:56:07;20.30;99.30
758;DHT22;363;48.764;9.172;2022-10-28T09:58:33;20.60;98.50
758;DHT22;363;48.764;9.172;2022-10-28T10:00:59;21.10;97.80
758;DHT22;363;48.764;9.172;2022-10-28T10:03:26;21.70;97.90
758;DHT22;363;48.764;9.172;2022-10-28T10:05:54;21.90;95.90
758;DHT22;363;48.764;9.172;2022-10-28T10:08:20;22.20;95.20
758;DHT22;363;48.764;9.172;2022-10-28T10:10:59;22.50;96.00
758;DHT22;363;48.764;9.172;2022-10-28T10:13:33;22.60;95.90
758;DHT22;363;48.764;9.172;2022-10-28T10:16:04;22.80;95.40
758;DHT22;363;48.764;9.172;2022-10-28T10:18:31;22.90;94.20
758;DHT22;363;48.764;9.172;2022-10-28T10:20:57;23.30;94.60
758;DHT22;363;48.764;9.172;2022-10-28T10:26:06;23.40;92.30
758;DHT22;363;48.764;9.172;2022-10-28T10:28:35;23.50;92.10
758;DHT22;363;48.764;9.172;2022-10-28T10:31:05;23.90;91.30
758;DHT22;363;48.764;9.172;2022-10-28T10:33:40;23.60;90.50
758;DHT22;363;48.764;9.172;2022-10-28T10:38:35;23.20;90.80
758;DHT22;363;48.764;9.172;2022-10-28T10:41:02;22.80;90.40
758;DHT22;363;48.764;9.172;2022-10-28T10:43:37;23.30;90.60
758;DHT22;363;48.764;9.172;2022-10-28T10:46:12;23.30;90.20
758;DHT22;363;48.764;9.172;2022-10-28T10:48:38;23.40;90.50
758;DHT22;363;48.764;9.172;2022-10-28T10:51:07;23.40;90.90
758;DHT22;363;48.764;9.172;2022-10-28T10:53:34;23.30;90.60
758;DHT22;363;48.764;9.172;2022-10-28T10:56:02;23.40;91.50
758;DHT22;363;48.764;9.172;2022-10-28T10:58:33;23.30;92.00
758;DHT22;363;48.764;9.172;2022-10-28T11:01:02;23.10;92.20
758;DHT22;363;48.764;9.172;2022-10-28T11:03:38;23.00;93.00
758;DHT22;363;48.764;9.172;2022-10-28T11:06:19;23.00;93.30
758;DHT22;363;48.764;9.172;2022-10-28T11:08:45;23.00;94.00
758;DHT22;363;48.764;9.172;2022-10-28T11:11:21;22.90;94.40
758;DHT22;363;48.764;9.172;2022-10-28T11:13:48;22.90;94.00
758;DHT22;363;48.764;9.172;2022-10-28T11:16:26;23.00;94.10
758;DHT22;363;48.764;9.172;2022-10-28T11:18:52;23.10;94.30
758;DHT22;363;48.764;9.172;2022-10-28T11:27:09;23.00;93.70
758;DHT22;363;48.764;9.172;2022-10-28T11:29:36;23.00;94.40
758;DHT22;363;48.764;9.172;2022-10-28T11:32:16;23.00;94.70
758;DHT22;363;48.764;9.172;2022-10-28T11:45:53;22.70;95.20
758;DHT22;363;48.764;9.172;2022-10-28T11:48:41;22.60;95.50
758;DHT22;363;48.764;9.172;2022-10-28T11:51:50;22.60;95.40
758;DHT22;363;48.764;9.172;2022-10-28T11:57:07;22.40;95.90
758;DHT22;363;48.764;9.172;2022-10-28T12:05:01;22.50;95.00
758;DHT22;363;48.764;9.172;2022-10-28T12:13:00;23.10;94.10
758;DHT22;363;48.764;9.172;2022-10-28T12:15:43;23.30;94.10
758;DHT22;363;48.764;9.172;2022-10-28T12:21:13;23.70;93.70
758;DHT22;363;48.764;9.172;2022-10-28T12:23:42;23.80;92.40
758;DHT22;363;48.764;9.172;2022-10-28T12:26:12;23.80;92.10
758;DHT22;363;48.764;9.172;2022-10-28T12:28:43;24.10;92.30
758;DHT22;363;48.764;9.172;2022-10-28T12:33:45;24.40;91.80
758;DHT22;363;48.764;9.172;2022-10-28T12:36:26;24.50;92.20
758;DHT22;363;48.764;9.172;2022-10-28T12:38:59;24.50;92.10
758;DHT22;363;48.764;9.172;2022-10-28T12:41:30;24.40;92.20
758;DHT22;363;48.764;9.172;2022-10-28T12:44:03;24.30;92.20
758;DHT22;363;48.764;9.172;2022-10-28T12:57:46;24.00;93.60
758;DHT22;363;48.764;9.172;2022-10-28T13:00:25;24.10;94.10
758;DHT22;363;48.764;9.172;2022-10-28T13:03:07;24.10;94.00
758;DHT22;363;48.764;9.172;2022-10-28T13:14:00;24.20;95.20
758;DHT22;363;48.764;9.172;2022-10-28T13:19:15;23.90;94.90
758;DHT22;363;48.764;9.172;2022-10-28T13:25:06;23.80;95.70
758;DHT22;363;48.764;9.172;2022-10-28T13:27:37;23.70;94.00
758;DHT22;363;48.764;9.172;2022-10-28T13:30:04;23.60;94.40
758;DHT22;363;48.764;9.172;2022-10-28T13:35:00;23.60;94.40
758;DHT22;363;48.764;9.172;2022-10-28T13:37:35;23.60;94.90
758;DHT22;363;48.764;9.172;2022-10-28T13:40:04;23.60;94.60
758;DHT22;363;48.764;9.172;2022-10-28T13:42:43;23.60;95.30
758;DHT22;363;48.764;9.172;2022-10-28T13:48:29;23.60;95.80
758;DHT22;363;48.764;9.172;2022-10-28T13:56:22;23.30;97.20
758;DHT22;363;48.764;9.172;2022-10-28T13:58:58;23.10;97.80
758;DHT22;363;48.764;9.172;2022-10-28T14:04:35;22.90;98.60
758;DHT22;363;48.764;9.172;2022-10-28T14:09:38;23.00;99.40
758;DHT22;363;48.764;9.172;2022-10-28T14:14:33;23.00;99.70
758;DHT22;363;48.764;9.172;2022-10-28T14:16:59;23.10;99.70
758;DHT22;363;48.764;9.172;2022-10-28T14:19:25;23.00;99.80
758;DHT22;363;48.764;9.172;2022-10-28T14:21:57;23.10;99.60
758;DHT22;363;48.764;9.172;2022-10-28T14:24:44;23.10;99.60
758;DHT22;363;48.764;9.172;2022-10-28T14:40:31;23.40;99.50
758;DHT22;363;48.764;9.172;2022-10-28T14:43:15;23.40;99.50
758;DHT22;363;48.764;9.172;2022-10-28T14:46:07;23.40;99.70
758;DHT22;363;48.764;9.172;2022-10-28T14:48:51;23.40;99.70
758;DHT22;363;48.764;9.172;2022-10-28T14:51:22;23.30;99.80
758;DHT22;363;48.764;9.172;2022-10-28T14:53:50;23.30;99.80
758;DHT22;363;48.764;9.172;2022-10-28T14:56:24;23.20;99.90
758;DHT22;363;48.764;9.172;2022-10-28T14:58:52;23.20;99.90
758;DHT22;363;48.764;9.172;2022-10-28T15:01:37;23.10;99.90
758;DHT22;363;48.764;9.172;2022-10-28T15:04:19;23.00;99.90
758;DHT22;363;48.764;9.172;2022-10-28T15:06:45;23.00;99.90
758;DHT22;363;48.764;9.172;2022-10-28T15:09:21;22.90;99.90
758;DHT22;363;48.764;9.172;2022-10-28T15:12:11;22.80;99.90
758;DHT22;363;48.764;9.172;2022-10-28T15:14:40;22.70;99.90
758;DHT22;363;48.764;9.172;2022-10-28T15:17:15;22.60;99.90
758;DHT22;363;48.764;9.172;2022-10-28T15:19:42;22.50;99.90
758;DHT22;363;48.764;9.172;2022-10-28T15:22:22;22.50;99.90
758;DHT22;363;48.764;9.172;2022-10-28T15:25:02;22.50;99.90
758;DHT22;363;48.764;9.172;2022-10-28T15:27:34;22.50;99.90
758;DHT22;363;48.764;9.172;2022-10-28T15:30:01;22.50;99.90
758;DHT22;363;48.764;9.172;2022-10-28T15:32:28;22.40;99.90
758;DHT22;363;48.764;9.172;2022-10-28T15:34:54;22.30;99.90
758;DHT22;363;48.764;9.172;2022-10-28T15:37:27;22.20;99.90
758;DHT22;363;48.764;9.172;2022-10-28T15:40:18;22.10;99.90
758;DHT22;363;48.764;9.172;2022-10-28T15:42:57;22.20;99.90
758;DHT22;363;48.764;9.172;2022-10-28T15:45:25;22.10;99.90
758;DHT22;363;48.764;9.172;2022-10-28T15:47:52;22.10;99.90
758;DHT22;363;48.764;9.172;2022-10-28T15:52:47;22.00;99.90
758;DHT22;363;48.764;9.172;2022-10-28T16:00:49;21.90;99.90
758;DHT22;363;48.764;9.172;2022-10-28T16:05:51;21.90;99.90
758;DHT22;363;48.764;9.172;2022-10-28T16:08:18;21.20;99.90
758;DHT22;363;48.764;9.172;2022-10-28T16:13:24;21.60;99.90
758;DHT22;363;48.764;9.172;2022-10-28T16:15:57;21.40;99.90
758;DHT22;363;48.764;9.172;2022-10-28T16:18:25;21.60;99.90
758;DHT22;363;48.764;9.172;2022-10-28T16:20:52;21.50;99.90
758;DHT22;363;48.764;9.172;2022-10-28T16:23:22;21.50;99.90
758;DHT22;363;48.764;9.172;2022-10-28T16:25:48;21.40;99.90
758;DHT22;363;48.764;9.172;2022-10-28T16:28:23;21.40;99.90
758;DHT22;363;48.764;9.172;2022-10-28T16:30:51;21.40;99.90
758;DHT22;363;48.764;9.172;2022-10-28T16:33:16;21.40;99.90
758;DHT22;363;48.764;9.172;2022-10-28T16:35:42;21.20;99.90
758;DHT22;363;48.764;9.172;2022-10-28T16:38:10;21.20;99.90
758;DHT22;363;48.764;9.172;2022-10-28T16:40:37;21.20;99.90
758;DHT22;363;48.764;9.172;2022-10-28T16:43:03;21.10;99.90
758;DHT22;363;48.764;9.172;2022-10-28T16:45:29;21.10;99.90
758;DHT22;363;48.764;9.172;2022-10-28T16:47:54;21.10;99.90
758;DHT22;363;48.764;9.172;2022-10-28T16:50:20;21.10;99.90
758;DHT22;363;48.764;9.172;2022-10-28T16:52:45;21.00;99.90
758;DHT22;363;48.764;9.172;2022-10-28T16:55:15;20.90;99.90
758;DHT22;363;48.764;9.172;2022-10-28T16:57:41;20.90;99.90
758;DHT22;363;48.764;9.172;2022-10-28T17:00:08;20.90;99.90
758;DHT22;363;48.764;9.172;2022-10-28T17:02:34;20.90;99.90
758;DHT22;363;48.764;9.172;2022-10-28T17:05:00;20.90;99.90
758;DHT22;363;48.764;9.172;2022-10-28T17:07:29;20.90;99.90
758;DHT22;363;48.764;9.172;2022-10-28T17:09:54;20.90;99.90
758;DHT22;363;48.764;9.172;2022-10-28T17:12:22;20.90;99.90
758;DHT22;363;48.764;9.172;2022-10-28T17:14:49;20.80;99.90
758;DHT22;363;48.764;9.172;2022-10-28T17:17:15;21.00;99.90
758;DHT22;363;48.764;9.172;2022-10-28T17:19:41;20.70;99.90
758;DHT22;363;48.764;9.172;2022-10-28T17:22:07;20.70;99.90
758;DHT22;363;48.764;9.172;2022-10-28T17:24:34;20.60;99.90
758;DHT22;363;48.764;9.172;2022-10-28T17:27:00;20.60;99.90
758;DHT22;363;48.764;9.172;2022-10-28T17:29:25;20.50;99.90
758;DHT22;363;48.764;9.172;2022-10-28T17:31:51;20.30;99.90
758;DHT22;363;48.764;9.172;2022-10-28T17:34:18;20.20;99.90
758;DHT22;363;48.764;9.172;2022-10-28T17:36:43;20.20;99.90
758;DHT22;363;48.764;9.172;2022-10-28T17:39:09;20.20;99.90
758;DHT22;363;48.764;9.172;2022-10-28T17:41:35;20.10;99.90
758;DHT22;363;48.764;9.172;2022-10-28T17:44:01;20.10;99.90
758;DHT22;363;48.764;9.172;2022-10-28T17:46:27;20.00;99.90
758;DHT22;363;48.764;9.172;2022-10-28T17:48:53;19.90;99.90
758;DHT22;363;48.764;9.172;2022-10-28T17:51:19;19.70;99.90
758;DHT22;363;48.764;9.172;2022-10-28T17:53:51;19.70;99.90
758;DHT22;363;48.764;9.172;2022-10-28T17:56:17;19.70;99.90
758;DHT22;363;48.764;9.172;2022-10-28T17:58:42;19.50;99.90
758;DHT22;363;48.764;9.172;2022-10-28T18:01:09;19.50;99.90
758;DHT22;363;48.764;9.172;2022-10-28T18:03:35;19.50;99.90
758;DHT22;363;48.764;9.172;2022-10-28T18:06:11;19.40;99.90
758;DHT22;363;48.764;9.172;2022-10-28T18:08:39;19.30;99.90
758;DHT22;363;48.764;9.172;2022-10-28T18:11:06;19.30;99.90
758;DHT22;363;48.764;9.172;2022-10-28T18:13:34;19.30;99.90
758;DHT22;363;48.764;9.172;2022-10-28T18:18:32;19.20;99.90
758;DHT22;363;48.764;9.172;2022-10-28T18:20:58;19.10;99.90
758;DHT22;363;48.764;9.172;2022-10-28T18:23:23;19.10;99.90
758;DHT22;363;48.764;9.172;2022-10-28T18:26:05;19.00;99.90
758;DHT22;363;48.764;9.172;2022-10-28T18:28:34;18.90;99.90
758;DHT22;363;48.764;9.172;2022-10-28T18:31:05;18.90;99.90
758;DHT22;363;48.764;9.172;2022-10-28T18:33:32;18.90;99.90
758;DHT22;363;48.764;9.172;2022-10-28T18:36:02;18.80;99.90
758;DHT22;363;48.764;9.172;2022-10-28T18:38:28;18.80;99.90
758;DHT22;363;48.764;9.172;2022-10-28T18:40:55;18.70;99.90
758;DHT22;363;48.764;9.172;2022-10-28T18:43:21;18.70;99.90
758;DHT22;363;48.764;9.172;2022-10-28T18:45:47;18.60;99.90
758;DHT22;363;48.764;9.172;2022-10-28T18:48:13;18.60;99.90
758;DHT22;363;48.764;9.172;2022-10-28T18:50:38;18.50;99.90
758;DHT22;363;48.764;9.172;2022-10-28T18:53:04;18.50;99.90
758;DHT22;363;48.764;9.172;2022-10-28T18:55:29;18.50;99.90
758;DHT22;363;48.764;9.172;2022-10-28T18:57:55;18.40;99.90
758;DHT22;363;48.764;9.172;2022-10-28T19:00:21;18.40;99.90
758;DHT22;363;48.764;9.172;2022-10-28T19:02:46;18.40;99.90
758;DHT22;363;48.764;9.172;2022-10-28T19:05:12;18.20;99.90
758;DHT22;363;48.764;9.172;2022-10-28T19:07:38;18.20;99.90
758;DHT22;363;48.764;9.172;2022-10-28T19:10:04;18.50;99.90
758;DHT22;363;48.764;9.172;2022-10-28T19:12:30;18.30;99.90
758;DHT22;363;48.764;9.172;2022-10-28T19:14:56;18.30;99.90
758;DHT22;363;48.764;9.172;2022-10-28T19:17:22;18.30;99.90
758;DHT22;363;48.764;9.172;2022-10-28T19:19:47;18.30;99.90
758;DHT22;363;48.764;9.172;2022-10-28T19:22:14;18.70;99.90
758;DHT22;363;48.764;9.172;2022-10-28T19:24:40;18.30;99.90
758;DHT22;363;48.764;9.172;2022-10-28T19:27:05;18.50;99.90
758;DHT22;363;48.764;9.172;2022-10-28T19:29:31;18.30;99.90
758;DHT22;363;48.764;9.172;2022-10-28T19:31:57;18.40;99.90
758;DHT22;363;48.764;9.172;2022-10-28T19:34:22;18.40;99.90
758;DHT22;363;48.764;9.172;2022-10-28T19:36:48;18.30;99.90